Time;durP1;ratioP1;P1;durP2;ratioP2;P2;SDS_P1;SDS_P2;PMS_P1;PMS_P2;Temp;Humidity;BMP_temperature;BMP_pressure;BME280_temperature;BME280_humidity;BME280_pressure;Samples;Min_cycle;Max_cycle;Signal;HPM_P1;HPM_P2
2021/09/10 00:00:46;;;;;;;13.27;11.30;;;;;;;;;;5054406;28;21032;-49
2021/09/10 00:03:12;;;;;;;16.40;12.93;;;;;;;;;;5054270;28;20820;-48
2021/09/10 00:05:38;;;;;;;13.87;10.57;;;;;;;;;;5054345;28;20408;-48
2021/09/10 00:08:04;;;;;;;11.43;10.00;;;;;;;;;;5054035;28;20417;-48
2021/09/10 00:10:31;;;;;;;11.87;9.67;;;;;;;;;;5054068;28;20865;-49
2021/09/10 00:12:57;;;;;;;15.50;10.07;;;;;;;;;;5052267;28;20538;-48
2021/09/10 00:15:23;;;;;;;13.50;11.07;;;;;;;;;;5052211;28;20443;-49
2021/09/10 00:17:49;;;;;;;15.13;10.30;;;;;;;;;;5053791;28;20481;-48
2021/09/10 00:20:15;;;;;;;12.03;10.33;;;;;;;;;;5054050;28;20407;-49
2021/09/10 00:22:41;;;;;;;17.03;11.60;;;;;;;;;;5053907;28;20966;-48
2021/09/10 00:25:07;;;;;;;11.43;10.33;;;;;;;;;;5053858;28;20477;-49
2021/09/10 00:27:33;;;;;;;15.30;11.17;;;;;;;;;;5053848;28;20427;-48
2021/09/10 00:29:59;;;;;;;11.90;9.77;;;;;;;;;;5053857;28;20768;-49
2021/09/10 00:32:25;;;;;;;13.30;11.83;;;;;;;;;;5053772;28;20404;-49
2021/09/10 00:34:51;;;;;;;14.83;12.10;;;;;;;;;;5053724;28;20406;-48
2021/09/10 00:37:17;;;;;;;14.60;11.27;;;;;;;;;;5053370;28;20444;-48
2021/09/10 00:39:43;;;;;;;15.53;11.57;;;;;;;;;;5053589;28;20498;-48
2021/09/10 00:42:09;;;;;;;13.90;12.40;;;;;;;;;;5053545;28;20436;-48
2021/09/10 00:44:35;;;;;;;14.80;10.97;;;;;;;;;;5034399;28;20423;-48
2021/09/10 00:47:01;;;;;;;19.70;12.23;;;;;;;;;;5053507;28;20420;-49
2021/09/10 00:49:27;;;;;;;18.37;11.33;;;;;;;;;;5053310;28;20805;-48
2021/09/10 00:51:53;;;;;;;13.13;11.67;;;;;;;;;;5053326;28;20403;-48
2021/09/10 00:54:19;;;;;;;13.30;11.83;;;;;;;;;;5053351;28;20452;-49
2021/09/10 00:56:45;;;;;;;14.83;12.30;;;;;;;;;;5053260;28;20483;-48
2021/09/10 00:59:11;;;;;;;15.10;12.20;;;;;;;;;;5053324;28;20430;-48
2021/09/10 01:01:37;;;;;;;18.73;12.70;;;;;;;;;;5052489;28;20407;-48
2021/09/10 01:04:03;;;;;;;13.10;11.90;;;;;;;;;;5052652;28;20423;-49
2021/09/10 01:06:29;;;;;;;14.43;11.93;;;;;;;;;;5052762;28;20434;-48
2021/09/10 01:08:56;;;;;;;14.60;12.70;;;;;;;;;;5052803;28;20396;-48
2021/09/10 01:11:22;;;;;;;13.67;12.17;;;;;;;;;;5052966;28;20404;-48
2021/09/10 01:13:50;;;;;;;12.30;10.97;;;;;;;;;;5051823;28;20410;-48
2021/09/10 01:16:16;;;;;;;13.57;12.17;;;;;;;;;;5032923;28;20410;-48
2021/09/10 01:18:42;;;;;;;12.30;11.17;;;;;;;;;;5032775;28;20814;-48
2021/09/10 01:21:08;;;;;;;15.63;11.07;;;;;;;;;;5032954;28;20406;-48
2021/09/10 01:23:34;;;;;;;15.47;11.80;;;;;;;;;;5032737;28;20461;-48
2021/09/10 01:26:00;;;;;;;12.83;11.13;;;;;;;;;;5032862;28;20435;-48
2021/09/10 01:28:27;;;;;;;14.20;12.00;;;;;;;;;;5032589;28;20415;-48
2021/09/10 01:30:53;;;;;;;11.63;10.53;;;;;;;;;;5032696;28;20426;-48
2021/09/10 01:33:19;;;;;;;17.80;11.63;;;;;;;;;;5032772;28;20383;-48
2021/09/10 01:35:45;;;;;;;12.33;10.73;;;;;;;;;;5032668;28;20415;-48
2021/09/10 01:38:11;;;;;;;13.60;10.73;;;;;;;;;;5032262;28;21034;-48
2021/09/10 01:40:38;;;;;;;15.50;10.30;;;;;;;;;;5032517;28;20503;-48
2021/09/10 01:43:05;;;;;;;18.47;10.60;;;;;;;;;;5032434;28;20446;-48
2021/09/10 01:45:31;;;;;;;13.50;10.43;;;;;;;;;;5042489;28;20529;-48
2021/09/10 01:47:57;;;;;;;12.30;10.27;;;;;;;;;;5052140;28;20423;-48
2021/09/10 01:50:25;;;;;;;12.60;11.30;;;;;;;;;;5052387;28;20405;-48
2021/09/10 01:52:51;;;;;;;11.10;10.00;;;;;;;;;;5052254;28;20399;-49
2021/09/10 01:55:17;;;;;;;10.73;9.73;;;;;;;;;;5052332;28;20786;-48
2021/09/10 01:57:45;;;;;;;14.97;9.83;;;;;;;;;;5052066;28;20434;-48
2021/09/10 02:00:11;;;;;;;10.97;9.87;;;;;;;;;;5052129;28;20490;-48
2021/09/10 02:02:37;;;;;;;11.30;10.30;;;;;;;;;;5052027;28;20461;-49
2021/09/10 02:05:03;;;;;;;13.53;9.93;;;;;;;;;;5052045;28;20399;-48
2021/09/10 02:07:29;;;;;;;11.67;9.47;;;;;;;;;;5051792;28;20432;-48
2021/09/10 02:09:55;;;;;;;10.10;9.00;;;;;;;;;;5052036;28;20471;-49
2021/09/10 02:12:21;;;;;;;12.20;10.10;;;;;;;;;;5051953;28;20410;-49
2021/09/10 02:14:47;;;;;;;10.63;9.53;;;;;;;;;;5050780;28;20403;-48
2021/09/10 02:17:13;;;;;;;12.80;10.17;;;;;;;;;;5051394;28;20443;-48
2021/09/10 02:19:39;;;;;;;11.27;10.10;;;;;;;;;;5051645;28;20431;-48
2021/09/10 02:22:05;;;;;;;10.50;8.93;;;;;;;;;;5051690;28;20460;-48
2021/09/10 02:24:31;;;;;;;12.60;10.00;;;;;;;;;;5051874;28;20784;-49
2021/09/10 02:26:57;;;;;;;10.30;9.30;;;;;;;;;;5051704;28;20391;-48
2021/09/10 02:29:23;;;;;;;14.00;9.87;;;;;;;;;;5051623;28;20393;-48
2021/09/10 02:31:49;;;;;;;15.17;10.80;;;;;;;;;;5051748;28;21053;-48
2021/09/10 02:34:15;;;;;;;12.73;10.27;;;;;;;;;;5051651;28;20548;-49
2021/09/10 02:36:41;;;;;;;11.27;10.07;;;;;;;;;;5051522;28;20544;-48
2021/09/10 02:39:08;;;;;;;12.00;10.43;;;;;;;;;;5055669;28;20592;-48
2021/09/10 02:41:34;;;;;;;12.10;10.20;;;;;;;;;;5058137;28;20772;-48
2021/09/10 02:44:00;;;;;;;11.37;9.80;;;;;;;;;;5057367;28;20906;-48
2021/09/10 02:46:26;;;;;;;15.63;9.90;;;;;;;;;;5058203;28;20402;-48
2021/09/10 02:48:52;;;;;;;10.00;8.63;;;;;;;;;;5057310;28;20433;-48
2021/09/10 02:51:18;;;;;;;12.20;10.10;;;;;;;;;;5058136;28;20399;-48
2021/09/10 02:53:44;;;;;;;9.90;9.00;;;;;;;;;;5058254;28;20396;-48
2021/09/10 02:56:10;;;;;;;14.77;10.53;;;;;;;;;;5058181;28;20397;-48
2021/09/10 02:58:36;;;;;;;11.23;10.03;;;;;;;;;;5057934;28;20767;-48
2021/09/10 03:01:03;;;;;;;10.77;9.80;;;;;;;;;;5058068;28;20411;-48
2021/09/10 03:03:29;;;;;;;11.07;9.80;;;;;;;;;;5058039;28;20449;-48
2021/09/10 03:05:55;;;;;;;12.87;9.80;;;;;;;;;;5058169;28;20447;-48
2021/09/10 03:08:21;;;;;;;13.47;10.70;;;;;;;;;;5057832;28;20421;-48
2021/09/10 03:10:47;;;;;;;12.50;9.53;;;;;;;;;;5058087;28;20848;-48
2021/09/10 03:13:13;;;;;;;10.30;9.30;;;;;;;;;;5057967;28;20450;-48
2021/09/10 03:15:39;;;;;;;10.20;9.20;;;;;;;;;;5056866;28;20437;-48
2021/09/10 03:18:05;;;;;;;11.00;9.57;;;;;;;;;;5056504;28;20618;-48
2021/09/10 03:20:31;;;;;;;12.80;10.20;;;;;;;;;;5057977;28;20562;-48
2021/09/10 03:22:57;;;;;;;14.67;9.73;;;;;;;;;;5057872;28;20461;-48
2021/09/10 03:25:23;;;;;;;12.67;10.03;;;;;;;;;;5057939;28;20432;-48
2021/09/10 03:27:49;;;;;;;13.77;9.50;;;;;;;;;;5057757;28;20445;-48
2021/09/10 03:30:15;;;;;;;16.33;10.47;;;;;;;;;;5057891;28;20433;-48
2021/09/10 03:32:41;;;;;;;9.90;8.90;;;;;;;;;;5057810;28;20405;-48
2021/09/10 03:35:08;;;;;;;11.23;10.00;;;;;;;;;;5057884;28;20483;-48
2021/09/10 03:37:34;;;;;;;11.07;9.97;;;;;;;;;;5057485;28;20979;-48
2021/09/10 03:40:00;;;;;;;13.47;9.60;;;;;;;;;;5058632;28;20406;-49
2021/09/10 03:42:26;;;;;;;10.80;9.73;;;;;;;;;;5056665;28;20458;-48
2021/09/10 03:44:52;;;;;;;14.77;9.20;;;;;;;;;;5057793;28;20397;-49
2021/09/10 03:47:18;;;;;;;12.47;10.40;;;;;;;;;;5057542;28;20426;-49
2021/09/10 03:49:44;;;;;;;10.53;9.63;;;;;;;;;;5055521;28;20414;-49
2021/09/10 03:52:10;;;;;;;10.47;9.40;;;;;;;;;;5054310;28;20498;-48
2021/09/10 03:54:36;;;;;;;11.73;10.53;;;;;;;;;;5054561;28;20410;-48
2021/09/10 03:57:02;;;;;;;12.83;9.93;;;;;;;;;;5054445;28;20426;-48
2021/09/10 03:59:28;;;;;;;12.27;9.67;;;;;;;;;;5052420;28;20434;-48
2021/09/10 04:01:54;;;;;;;12.77;10.40;;;;;;;;;;5054013;28;20458;-48
2021/09/10 04:04:20;;;;;;;10.73;9.63;;;;;;;;;;5054381;28;20410;-48
2021/09/10 04:06:46;;;;;;;11.73;9.77;;;;;;;;;;5054310;28;20824;-49
2021/09/10 04:09:12;;;;;;;11.27;9.97;;;;;;;;;;5054101;28;20808;-49
2021/09/10 04:11:38;;;;;;;11.97;9.80;;;;;;;;;;5054291;28;20492;-49
2021/09/10 04:14:04;;;;;;;10.27;9.27;;;;;;;;;;5054186;28;20429;-49
2021/09/10 04:16:31;;;;;;;10.90;9.80;;;;;;;;;;5054125;28;20405;-48
2021/09/10 04:18:57;;;;;;;12.83;11.53;;;;;;;;;;5053817;28;20412;-48
2021/09/10 04:21:22;;;;;;;12.10;10.93;;;;;;;;;;5053973;28;20397;-49
2021/09/10 04:23:48;;;;;;;12.60;10.13;;;;;;;;;;5054056;28;20477;-49
2021/09/10 04:26:15;;;;;;;12.83;11.40;;;;;;;;;;5053961;28;20408;-49
2021/09/10 04:28:46;;;;;;;14.30;10.70;;;;;;;;;;5053670;28;20909;-48
2021/09/10 04:31:12;;;;;;;12.00;10.53;;;;;;;;;;5051540;28;20400;-49
2021/09/10 04:33:38;;;;;;;12.53;10.67;;;;;;;;;;5053104;28;20433;-49
2021/09/10 04:36:04;;;;;;;11.80;10.60;;;;;;;;;;5053738;28;20485;-48
2021/09/10 04:38:30;;;;;;;14.03;11.50;;;;;;;;;;5052571;28;20435;-48
2021/09/10 04:40:56;;;;;;;12.53;11.03;;;;;;;;;;5053566;28;20409;-49
2021/09/10 04:43:22;;;;;;;16.00;12.97;;;;;;;;;;5053445;28;20985;-49
2021/09/10 04:45:47;;;;;;;13.20;11.90;;;;;;;;;;5053548;28;20766;-48
2021/09/10 04:48:13;;;;;;;14.03;11.47;;;;;;;;;;5051396;28;20831;-48
2021/09/10 04:50:39;;;;;;;17.33;11.83;;;;;;;;;;5051788;28;20802;-48
2021/09/10 04:53:05;;;;;;;16.13;11.70;;;;;;;;;;5052620;28;20461;-49
2021/09/10 04:55:31;;;;;;;16.50;12.37;;;;;;;;;;5053309;28;20496;-49
2021/09/10 04:57:57;;;;;;;13.20;11.80;;;;;;;;;;5052561;28;20506;-49
2021/09/10 05:00:23;;;;;;;14.00;12.43;;;;;;;;;;5053333;28;20384;-49
2021/09/10 05:02:50;;;;;;;13.37;11.97;;;;;;;;;;5051828;28;20449;-49
2021/09/10 05:05:16;;;;;;;13.03;11.73;;;;;;;;;;5053226;28;20397;-48
2021/09/10 05:07:42;;;;;;;18.27;11.30;;;;;;;;;;5052951;28;20794;-49
2021/09/10 05:10:08;;;;;;;13.90;12.20;;;;;;;;;;5053379;28;20404;-48
2021/09/10 05:12:34;;;;;;;13.13;11.50;;;;;;;;;;5053002;28;20454;-48
2021/09/10 05:15:00;;;;;;;14.03;12.67;;;;;;;;;;5053072;28;20807;-49
2021/09/10 05:17:26;;;;;;;17.80;13.33;;;;;;;;;;5052847;28;20470;-48
2021/09/10 05:19:52;;;;;;;16.00;11.77;;;;;;;;;;5052710;28;20409;-49
2021/09/10 05:22:18;;;;;;;15.80;11.20;;;;;;;;;;5052733;28;20423;-48
2021/09/10 05:24:44;;;;;;;15.00;12.50;;;;;;;;;;5051801;28;20403;-48
2021/09/10 05:27:10;;;;;;;14.03;12.17;;;;;;;;;;5052687;28;21065;-48
2021/09/10 05:29:36;;;;;;;12.30;10.13;;;;;;;;;;5052622;28;20394;-48
2021/09/10 05:32:02;;;;;;;16.03;12.93;;;;;;;;;;5052572;28;20787;-48
2021/09/10 05:34:28;;;;;;;13.20;11.50;;;;;;;;;;5052683;28;20775;-48
2021/09/10 05:36:54;;;;;;;15.10;11.67;;;;;;;;;;5052511;28;21113;-48
2021/09/10 05:39:21;;;;;;;16.13;11.53;;;;;;;;;;5052426;28;20401;-48
2021/09/10 05:41:47;;;;;;;13.83;11.07;;;;;;;;;;5052320;28;20886;-48
2021/09/10 05:44:14;;;;;;;13.50;11.97;;;;;;;;;;5052508;28;20856;-48
2021/09/10 05:46:40;;;;;;;12.97;11.67;;;;;;;;;;5052332;28;20875;-48
2021/09/10 05:49:06;;;;;;;13.67;12.43;;;;;;;;;;5051160;28;20484;-49
2021/09/10 05:51:32;;;;;;;13.80;12.43;;;;;;;;;;5052307;28;20459;-48
2021/09/10 05:53:58;;;;;;;12.83;11.20;;;;;;;;;;5052319;28;20404;-48
2021/09/10 05:56:23;;;;;;;14.80;12.77;;;;;;;;;;5052247;28;20918;-48
2021/09/10 05:58:49;;;;;;;14.03;11.87;;;;;;;;;;5051979;28;20848;-48
2021/09/10 06:01:16;;;;;;;16.47;11.80;;;;;;;;;;5052062;28;20406;-48
2021/09/10 06:03:41;;;;;;;13.57;12.27;;;;;;;;;;5052094;28;20458;-48
2021/09/10 06:06:08;;;;;;;13.63;12.23;;;;;;;;;;5052195;28;20535;-48
2021/09/10 06:08:35;;;;;;;14.00;11.27;;;;;;;;;;5051772;28;20460;-48
2021/09/10 06:11:00;;;;;;;15.07;11.67;;;;;;;;;;5051795;28;20393;-49
2021/09/10 06:13:26;;;;;;;14.70;11.03;;;;;;;;;;5051252;28;20401;-48
2021/09/10 06:15:52;;;;;;;13.93;11.50;;;;;;;;;;5051885;28;20407;-49
2021/09/10 06:18:18;;;;;;;12.30;10.97;;;;;;;;;;5051601;28;20433;-50
2021/09/10 06:20:44;;;;;;;12.27;11.07;;;;;;;;;;5051824;28;20806;-49
2021/09/10 06:23:10;;;;;;;17.10;11.00;;;;;;;;;;5051686;28;20538;-48
2021/09/10 06:25:36;;;;;;;18.03;10.53;;;;;;;;;;5051709;28;20401;-48
2021/09/10 06:28:02;;;;;;;15.90;12.37;;;;;;;;;;5051553;28;20951;-48
2021/09/10 06:30:28;;;;;;;12.47;10.70;;;;;;;;;;5051636;28;20393;-49
2021/09/10 06:32:54;;;;;;;14.50;10.27;;;;;;;;;;5051667;28;20526;-48
2021/09/10 06:35:20;;;;;;;12.83;11.53;;;;;;;;;;5051149;28;20403;-48
2021/09/10 06:37:46;;;;;;;13.23;11.47;;;;;;;;;;5051086;28;20455;-48
2021/09/10 06:40:12;;;;;;;12.47;11.17;;;;;;;;;;5050683;28;20407;-48
2021/09/10 06:42:39;;;;;;;16.17;11.10;;;;;;;;;;5050911;28;20455;-49
2021/09/10 06:45:06;;;;;;;11.80;9.87;;;;;;;;;;5051026;28;20451;-48
2021/09/10 06:47:32;;;;;;;11.07;9.93;;;;;;;;;;5050835;28;20515;-48
2021/09/10 06:49:58;;;;;;;10.47;9.00;;;;;;;;;;5050821;28;20419;-49
2021/09/10 06:52:24;;;;;;;11.10;9.17;;;;;;;;;;5050704;28;20405;-48
2021/09/10 06:54:50;;;;;;;14.40;10.40;;;;;;;;;;5056636;28;20421;-48
2021/09/10 06:57:16;;;;;;;9.73;8.50;;;;;;;;;;5050661;28;20436;-48
2021/09/10 06:59:42;;;;;;;7.80;7.10;;;;;;;;;;5050957;28;20408;-49
2021/09/10 07:02:08;;;;;;;8.23;7.43;;;;;;;;;;5050751;28;20452;-49
2021/09/10 07:04:35;;;;;;;12.43;6.40;;;;;;;;;;5050715;28;20411;-49
2021/09/10 07:07:01;;;;;;;6.80;6.20;;;;;;;;;;5050665;28;20583;-49
2021/09/10 07:09:27;;;;;;;8.33;6.67;;;;;;;;;;5050420;28;20499;-49
2021/09/10 07:11:53;;;;;;;6.93;6.23;;;;;;;;;;5049502;28;20431;-49
2021/09/10 07:14:19;;;;;;;7.30;6.70;;;;;;;;;;5049206;28;20413;-49
2021/09/10 07:16:45;;;;;;;8.27;7.03;;;;;;;;;;5050724;28;20418;-49
2021/09/10 07:19:11;;;;;;;8.03;7.23;;;;;;;;;;5050305;28;20904;-48
2021/09/10 07:21:37;;;;;;;9.90;7.80;;;;;;;;;;5050357;28;20413;-48
2021/09/10 07:24:06;;;;;;;8.43;6.93;;;;;;;;;;5050754;28;21084;-49
2021/09/10 07:26:32;;;;;;;9.87;6.73;;;;;;;;;;5054314;28;20498;-48
2021/09/10 07:28:58;;;;;;;6.10;5.60;;;;;;;;;;5054218;28;20949;-49
2021/09/10 07:31:24;;;;;;;6.50;5.90;;;;;;;;;;5054159;28;20413;-48
2021/09/10 07:33:50;;;;;;;6.33;5.03;;;;;;;;;;5053669;28;20423;-48
2021/09/10 07:36:17;;;;;;;5.97;5.47;;;;;;;;;;5053179;28;20447;-49
2021/09/10 07:38:43;;;;;;;5.33;4.83;;;;;;;;;;5053538;28;20567;-48
2021/09/10 07:41:09;;;;;;;6.63;6.10;;;;;;;;;;5054639;28;20408;-49
2021/09/10 07:43:35;;;;;;;6.50;4.90;;;;;;;;;;5054542;28;20812;-48
2021/09/10 07:46:01;;;;;;;6.00;5.43;;;;;;;;;;5054488;28;20424;-48
2021/09/10 07:48:27;;;;;;;6.27;5.77;;;;;;;;;;5054308;28;20774;-49
2021/09/10 07:50:53;;;;;;;6.10;5.50;;;;;;;;;;5054453;28;20909;-49
2021/09/10 07:53:19;;;;;;;5.50;5.10;;;;;;;;;;5054564;28;20434;-49
2021/09/10 07:55:45;;;;;;;6.07;4.23;;;;;;;;;;5054514;28;20881;-49
2021/09/10 07:58:11;;;;;;;7.30;4.67;;;;;;;;;;5054132;28;20453;-49
2021/09/10 08:00:37;;;;;;;6.60;5.30;;;;;;;;;;5054415;28;20416;-49
2021/09/10 08:03:03;;;;;;;5.13;4.43;;;;;;;;;;5054234;28;20467;-49
2021/09/10 08:05:29;;;;;;;6.60;5.00;;;;;;;;;;5054246;28;20492;-49
2021/09/10 08:07:55;;;;;;;5.50;4.97;;;;;;;;;;5054253;28;20472;-49
2021/09/10 08:10:22;;;;;;;5.73;4.80;;;;;;;;;;5053950;28;20397;-49
2021/09/10 08:12:48;;;;;;;4.93;3.93;;;;;;;;;;5054111;28;20955;-49
2021/09/10 08:15:15;;;;;;;3.77;3.47;;;;;;;;;;5054193;28;20492;-49
2021/09/10 08:17:42;;;;;;;3.20;3.00;;;;;;;;;;5053951;28;20457;-49
2021/09/10 08:20:08;;;;;;;3.67;3.30;;;;;;;;;;5053764;28;20405;-49
2021/09/10 08:22:35;;;;;;;3.20;3.00;;;;;;;;;;5053861;28;20915;-49
2021/09/10 08:25:01;;;;;;;3.77;3.33;;;;;;;;;;5053981;28;20488;-49
2021/09/10 08:27:27;;;;;;;3.47;3.10;;;;;;;;;;5053775;28;20428;-48
2021/09/10 08:29:54;;;;;;;3.73;3.43;;;;;;;;;;5053643;28;20398;-49
2021/09/10 08:32:19;;;;;;;3.10;2.90;;;;;;;;;;5053761;28;20475;-49
2021/09/10 08:34:45;;;;;;;3.40;2.97;;;;;;;;;;5053760;28;20412;-50
2021/09/10 08:37:11;;;;;;;3.87;3.30;;;;;;;;;;5051312;28;20464;-49
2021/09/10 08:39:37;;;;;;;3.43;3.10;;;;;;;;;;5053102;28;20406;-49
2021/09/10 08:42:03;;;;;;;3.77;3.00;;;;;;;;;;5053403;28;20453;-49
2021/09/10 08:44:29;;;;;;;3.40;3.10;;;;;;;;;;5053252;28;20405;-49
2021/09/10 08:46:55;;;;;;;3.33;3.10;;;;;;;;;;5053486;28;20428;-49
2021/09/10 08:49:21;;;;;;;3.20;2.90;;;;;;;;;;5053200;28;20404;-49
2021/09/10 08:51:47;;;;;;;5.43;2.97;;;;;;;;;;5053431;28;20484;-49
2021/09/10 08:54:13;;;;;;;2.83;2.63;;;;;;;;;;5053438;28;20444;-48
2021/09/10 08:56:39;;;;;;;3.87;3.10;;;;;;;;;;5052277;28;20528;-48
2021/09/10 08:59:18;;;;;;;3.70;3.30;;;;;;;;;;5053121;28;20393;-49
2021/09/10 09:01:48;;;;;;;5.80;3.20;;;;;;;;;;5052877;28;20429;-49
2021/09/10 09:04:14;;;;;;;3.43;2.90;;;;;;;;;;5053211;28;20409;-49
2021/09/10 09:06:40;;;;;;;4.93;3.23;;;;;;;;;;5053092;28;20402;-49
2021/09/10 09:09:06;;;;;;;3.67;3.37;;;;;;;;;;5052875;28;20405;-48
2021/09/10 09:11:32;;;;;;;4.07;2.73;;;;;;;;;;5053407;28;20459;-49
2021/09/10 09:14:02;;;;;;;5.17;3.30;;;;;;;;;;5052995;28;20912;-49
2021/09/10 09:16:30;;;;;;;6.70;3.70;;;;;;;;;;5056824;28;20437;-51
2021/09/10 09:19:06;;;;;;;3.43;3.13;;;;;;;;;;5051614;28;20492;-49
2021/09/10 09:21:36;;;;;;;3.47;2.97;;;;;;;;;;5052319;28;20490;-49
2021/09/10 09:24:16;;;;;;;3.30;3.10;;;;;;;;;;5052802;28;20551;-49
2021/09/10 09:26:43;;;;;;;4.60;2.80;;;;;;;;;;5052517;28;20390;-49
2021/09/10 09:29:10;;;;;;;3.00;2.53;;;;;;;;;;5052504;28;20390;-51
2021/09/10 09:31:37;;;;;;;3.67;2.73;;;;;;;;;;5052502;28;20760;-49
2021/09/10 09:34:04;;;;;;;3.03;2.70;;;;;;;;;;5052721;28;20540;-49
2021/09/10 09:36:30;;;;;;;3.30;2.80;;;;;;;;;;5052296;28;20492;-49
2021/09/10 09:38:56;;;;;;;4.10;2.80;;;;;;;;;;5052324;28;20402;-48
2021/09/10 09:41:23;;;;;;;4.53;2.57;;;;;;;;;;5051768;28;20844;-49
2021/09/10 09:43:50;;;;;;;3.53;3.23;;;;;;;;;;5049654;28;20461;-49
2021/09/10 09:46:21;;;;;;;3.23;2.93;;;;;;;;;;5051854;28;20393;-49
2021/09/10 09:48:51;;;;;;;4.27;3.67;;;;;;;;;;5051026;28;20424;-48
2021/09/10 09:51:19;;;;;;;2.80;2.60;;;;;;;;;;5052743;28;20889;-48
2021/09/10 09:53:45;;;;;;;4.10;3.07;;;;;;;;;;5052024;28;20500;-49
2021/09/10 09:56:12;;;;;;;5.70;3.30;;;;;;;;;;5052154;28;20508;-48
2021/09/10 09:58:39;;;;;;;3.57;3.00;;;;;;;;;;5051899;28;20428;-48
2021/09/10 10:01:06;;;;;;;4.50;3.17;;;;;;;;;;5052097;28;20408;-49
2021/09/10 10:03:32;;;;;;;6.10;3.43;;;;;;;;;;5052078;28;20545;-49
2021/09/10 10:06:04;;;;;;;5.90;3.57;;;;;;;;;;5052130;28;20936;-49
2021/09/10 10:08:39;;;;;;;3.97;3.17;;;;;;;;;;5051564;28;20420;-49
2021/09/10 10:11:13;;;;;;;4.03;3.07;;;;;;;;;;5050721;28;20421;-49
2021/09/10 10:13:39;;;;;;;3.47;2.83;;;;;;;;;;5051310;28;20409;-49
2021/09/10 10:16:05;;;;;;;3.20;2.90;;;;;;;;;;5052029;28;20900;-49
2021/09/10 10:18:42;;;;;;;3.73;3.43;;;;;;;;;;5051324;28;20426;-49
2021/09/10 10:21:10;;;;;;;5.23;3.30;;;;;;;;;;5051870;28;20408;-49
2021/09/10 10:23:45;;;;;;;3.50;3.20;;;;;;;;;;5051799;28;20507;-49
2021/09/10 10:26:15;;;;;;;4.00;3.10;;;;;;;;;;5051871;28;20421;-49
2021/09/10 10:28:45;;;;;;;3.20;3.00;;;;;;;;;;5051512;28;20424;-48
2021/09/10 10:31:12;;;;;;;6.40;2.90;;;;;;;;;;5051728;28;20419;-48
2021/09/10 10:33:48;;;;;;;4.27;3.27;;;;;;;;;;5051746;28;20448;-48
2021/09/10 10:36:33;;;;;;;3.20;2.90;;;;;;;;;;5051725;28;20497;-49
2021/09/10 10:39:26;;;;;;;3.17;2.90;;;;;;;;;;5051544;28;20401;-49
2021/09/10 10:42:03;;;;;;;4.43;2.90;;;;;;;;;;5050360;28;20497;-49
2021/09/10 10:44:35;;;;;;;3.20;2.63;;;;;;;;;;5033097;28;20504;-49
2021/09/10 10:47:05;;;;;;;3.00;2.80;;;;;;;;;;5051577;28;20443;-49
2021/09/10 10:49:32;;;;;;;5.00;3.00;;;;;;;;;;5051408;28;20401;-49
2021/09/10 10:51:58;;;;;;;3.77;2.73;;;;;;;;;;5051520;28;20405;-49
2021/09/10 10:54:30;;;;;;;4.33;3.50;;;;;;;;;;5051487;28;20405;-49
2021/09/10 10:57:02;;;;;;;3.07;2.83;;;;;;;;;;5051467;28;20445;-49
2021/09/10 10:59:28;;;;;;;3.80;3.47;;;;;;;;;;5052314;28;20454;-48
2021/09/10 11:02:13;;;;;;;3.83;3.53;;;;;;;;;;5055376;28;20928;-48
2021/09/10 11:04:39;;;;;;;3.53;3.20;;;;;;;;;;5055510;28;20446;-48
2021/09/10 11:07:06;;;;;;;6.30;4.33;;;;;;;;;;5040072;28;20941;-48
2021/09/10 11:09:32;;;;;;;4.63;3.83;;;;;;;;;;5035078;28;20398;-48
2021/09/10 11:11:58;;;;;;;4.23;3.87;;;;;;;;;;5054220;28;20966;-48
2021/09/10 11:14:31;;;;;;;6.00;4.23;;;;;;;;;;5054860;28;20440;-48
2021/09/10 11:17:10;;;;;;;4.37;4.03;;;;;;;;;;5055193;28;20419;-48
2021/09/10 11:19:37;;;;;;;8.03;4.37;;;;;;;;;;5054911;28;20499;-48
2021/09/10 11:22:04;;;;;;;5.20;4.70;;;;;;;;;;5054988;28;20427;-48
2021/09/10 11:24:30;;;;;;;5.13;3.90;;;;;;;;;;5055143;28;20457;-48
2021/09/10 11:26:56;;;;;;;4.43;3.90;;;;;;;;;;5055027;28;20911;-48
2021/09/10 11:29:22;;;;;;;6.50;3.60;;;;;;;;;;5054777;28;20400;-48
2021/09/10 11:31:48;;;;;;;4.90;3.93;;;;;;;;;;5054683;28;20898;-49
2021/09/10 11:34:33;;;;;;;4.97;3.40;;;;;;;;;;5055044;28;20494;-48
2021/09/10 11:37:00;;;;;;;3.70;3.40;;;;;;;;;;5054675;28;20446;-48
2021/09/10 11:39:26;;;;;;;5.17;3.30;;;;;;;;;;5054567;28;20956;-49
2021/09/10 11:41:52;;;;;;;4.07;3.30;;;;;;;;;;5052369;28;20471;-48
2021/09/10 11:44:18;;;;;;;6.23;4.00;;;;;;;;;;5054205;28;20462;-49
2021/09/10 11:46:45;;;;;;;7.27;4.70;;;;;;;;;;5054750;28;20411;-49
2021/09/10 11:49:12;;;;;;;4.70;4.37;;;;;;;;;;5054390;28;20405;-48
2021/09/10 11:51:38;;;;;;;4.87;4.43;;;;;;;;;;5054636;28;20406;-48
2021/09/10 11:54:08;;;;;;;4.50;4.10;;;;;;;;;;5053210;28;20437;-48
2021/09/10 11:56:34;;;;;;;5.77;5.20;;;;;;;;;;5054356;28;20403;-48
2021/09/10 11:59:00;;;;;;;4.17;3.87;;;;;;;;;;5054256;28;20399;-48
2021/09/10 12:01:30;;;;;;;7.90;5.40;;;;;;;;;;5054262;28;20895;-48
2021/09/10 12:03:58;;;;;;;4.77;4.17;;;;;;;;;;5054284;28;20988;-48
2021/09/10 12:06:24;;;;;;;4.47;4.13;;;;;;;;;;5054310;28;20433;-48
2021/09/10 12:09:09;;;;;;;4.93;4.43;;;;;;;;;;5053965;28;20468;-48
2021/09/10 12:11:36;;;;;;;6.50;4.77;;;;;;;;;;5050890;28;20425;-48
2021/09/10 12:14:01;;;;;;;5.77;5.27;;;;;;;;;;5053522;28;20398;-48
2021/09/10 12:16:29;;;;;;;5.77;5.27;;;;;;;;;;5054064;28;20988;-48
2021/09/10 12:19:04;;;;;;;6.93;6.27;;;;;;;;;;5053854;28;20405;-49
2021/09/10 12:21:34;;;;;;;8.23;6.27;;;;;;;;;;5053998;28;20392;-48
2021/09/10 12:24:10;;;;;;;6.93;6.30;;;;;;;;;;5053811;28;20507;-48
2021/09/10 12:26:49;;;;;;;8.00;6.10;;;;;;;;;;5053851;28;20405;-48
2021/09/10 12:29:20;;;;;;;7.73;6.63;;;;;;;;;;5053723;28;20408;-48
2021/09/10 12:31:46;;;;;;;6.87;6.27;;;;;;;;;;5053677;28;20490;-48
2021/09/10 12:34:12;;;;;;;7.90;5.90;;;;;;;;;;5053827;28;20405;-49
2021/09/10 12:36:37;;;;;;;7.93;7.07;;;;;;;;;;5053664;28;20408;-49
2021/09/10 12:39:03;;;;;;;9.50;4.60;;;;;;;;;;5053606;28;20414;-48
2021/09/10 12:41:29;;;;;;;5.67;4.90;;;;;;;;;;5052639;28;20438;-49
2021/09/10 12:43:55;;;;;;;4.60;4.20;;;;;;;;;;5052946;28;20488;-49
2021/09/10 12:46:21;;;;;;;6.93;4.43;;;;;;;;;;5053730;28;20916;-48
2021/09/10 12:48:47;;;;;;;4.53;4.00;;;;;;;;;;5053000;28;20422;-49
2021/09/10 12:51:13;;;;;;;4.53;4.10;;;;;;;;;;5053293;28;20920;-49
2021/09/10 12:53:39;;;;;;;5.93;4.40;;;;;;;;;;5053427;28;20784;-48
2021/09/10 12:56:05;;;;;;;5.00;3.80;;;;;;;;;;5053489;28;20920;-49
2021/09/10 12:58:31;;;;;;;4.10;3.70;;;;;;;;;;5053156;28;20421;-48
2021/09/10 13:00:57;;;;;;;3.80;3.50;;;;;;;;;;5053175;28;20405;-49
2021/09/10 13:03:23;;;;;;;3.83;3.33;;;;;;;;;;5053155;28;20536;-49
2021/09/10 13:05:52;;;;;;;6.00;3.70;;;;;;;;;;5053235;28;20881;-49
2021/09/10 13:08:18;;;;;;;3.93;3.53;;;;;;;;;;5053128;28;20512;-48
2021/09/10 13:10:48;;;;;;;3.73;3.33;;;;;;;;;;5051548;28;20528;-48
2021/09/10 13:13:14;;;;;;;3.70;3.40;;;;;;;;;;5050863;28;20425;-48
2021/09/10 13:15:40;;;;;;;3.90;3.60;;;;;;;;;;5052951;28;20412;-49
2021/09/10 13:18:06;;;;;;;3.63;3.33;;;;;;;;;;5052639;28;20452;-48
2021/09/10 13:20:32;;;;;;;4.10;3.80;;;;;;;;;;5052649;28;20890;-48
2021/09/10 13:22:58;;;;;;;4.77;3.60;;;;;;;;;;5052454;28;20453;-49
2021/09/10 13:25:24;;;;;;;3.53;3.23;;;;;;;;;;5052744;28;20871;-48
2021/09/10 13:27:50;;;;;;;3.47;3.00;;;;;;;;;;5052630;28;20985;-48
2021/09/10 13:30:20;;;;;;;3.40;3.10;;;;;;;;;;5052440;28;20424;-48
2021/09/10 13:32:47;;;;;;;3.60;3.30;;;;;;;;;;5052446;28;20400;-49
2021/09/10 13:35:13;;;;;;;5.90;3.20;;;;;;;;;;5052765;28;20443;-49
2021/09/10 13:37:38;;;;;;;3.57;3.27;;;;;;;;;;5052354;28;20459;-49
2021/09/10 13:40:05;;;;;;;3.17;2.97;;;;;;;;;;5052740;28;20903;-48
2021/09/10 13:42:31;;;;;;;2.90;2.70;;;;;;;;;;5051110;28;21020;-48
2021/09/10 13:44:57;;;;;;;3.33;3.13;;;;;;;;;;5051939;28;20498;-48
2021/09/10 13:47:24;;;;;;;3.13;2.83;;;;;;;;;;5052316;28;20433;-49
2021/09/10 13:49:50;;;;;;;2.93;2.60;;;;;;;;;;5052292;28;20796;-48
2021/09/10 13:52:16;;;;;;;3.33;3.03;;;;;;;;;;5052260;28;20416;-48
2021/09/10 13:54:42;;;;;;;3.47;3.17;;;;;;;;;;5052314;28;20425;-48
2021/09/10 13:57:08;;;;;;;4.00;3.80;;;;;;;;;;5052221;28;20425;-48
2021/09/10 13:59:34;;;;;;;4.50;2.83;;;;;;;;;;5052285;28;20413;-48
2021/09/10 14:02:00;;;;;;;3.80;3.50;;;;;;;;;;5052000;28;20426;-48
2021/09/10 14:04:26;;;;;;;3.83;3.20;;;;;;;;;;5052174;28;20790;-48
2021/09/10 14:06:52;;;;;;;4.27;3.87;;;;;;;;;;5051998;28;20420;-49
2021/09/10 14:09:19;;;;;;;3.73;3.53;;;;;;;;;;5051869;28;20415;-48
2021/09/10 14:11:45;;;;;;;3.70;3.43;;;;;;;;;;5050957;28;20837;-48
2021/09/10 14:14:11;;;;;;;3.80;3.40;;;;;;;;;;5051117;28;20404;-48
2021/09/10 14:16:37;;;;;;;3.73;3.40;;;;;;;;;;5051593;28;20417;-48
2021/09/10 14:19:03;;;;;;;6.30;4.00;;;;;;;;;;5055468;28;20419;-48
2021/09/10 14:21:29;;;;;;;5.43;4.93;;;;;;;;;;5051776;28;20407;-48
2021/09/10 14:23:55;;;;;;;3.93;3.47;;;;;;;;;;5052012;28;20449;-49
2021/09/10 14:26:22;;;;;;;5.13;3.70;;;;;;;;;;5051855;28;20490;-48
2021/09/10 14:28:49;;;;;;;3.90;3.60;;;;;;;;;;5051519;28;20791;-48